sensor_id;sensor_type;location;lat;lon;timestamp;temperature;humidity
75164;HTU21D;63746;45.402;37.922;2023-04-25T00:01:45;12.52;71.96
75164;HTU21D;63746;45.402;37.922;2023-04-25T00:04:11;12.48;72.20
75164;HTU21D;63746;45.402;37.922;2023-04-25T00:06:37;12.48;72.10
75164;HTU21D;63746;45.402;37.922;2023-04-25T00:09:04;12.46;71.96
75164;HTU21D;63746;45.402;37.922;2023-04-25T00:11:33;12.45;72.31
75164;HTU21D;63746;45.402;37.922;2023-04-25T00:13:59;12.43;72.41
75164;HTU21D;63746;45.402;37.922;2023-04-25T00:16:28;12.38;72.09
75164;HTU21D;63746;45.402;37.922;2023-04-25T00:18:55;12.35;72.25
75164;HTU21D;63746;45.402;37.922;2023-04-25T00:21:21;12.33;72.08
75164;HTU21D;63746;45.402;37.922;2023-04-25T00:23:50;12.33;72.38
75164;HTU21D;63746;45.402;37.922;2023-04-25T00:26:15;12.32;72.11
75164;HTU21D;63746;45.402;37.922;2023-04-25T00:28:41;12.32;72.76
75164;HTU21D;63746;45.402;37.922;2023-04-25T00:31:07;12.28;72.30
75164;HTU21D;63746;45.402;37.922;2023-04-25T00:33:33;12.22;72.29
75164;HTU21D;63746;45.402;37.922;2023-04-25T00:36:00;12.19;72.13
75164;HTU21D;63746;45.402;37.922;2023-04-25T00:38:26;12.18;72.51
75164;HTU21D;63746;45.402;37.922;2023-04-25T00:40:52;12.14;72.19
75164;HTU21D;63746;45.402;37.922;2023-04-25T00:43:18;12.13;72.25
75164;HTU21D;63746;45.402;37.922;2023-04-25T00:45:47;12.12;72.47
75164;HTU21D;63746;45.402;37.922;2023-04-25T00:48:17;12.10;72.27
75164;HTU21D;63746;45.402;37.922;2023-04-25T00:50:53;12.07;72.54
75164;HTU21D;63746;45.402;37.922;2023-04-25T00:53:23;12.07;72.35
75164;HTU21D;63746;45.402;37.922;2023-04-25T00:55:50;12.05;72.36
75164;HTU21D;63746;45.402;37.922;2023-04-25T00:58:22;12.03;72.32
75164;HTU21D;63746;45.402;37.922;2023-04-25T01:00:49;12.01;72.54
75164;HTU21D;63746;45.402;37.922;2023-04-25T01:03:16;12.02;72.42
75164;HTU21D;63746;45.402;37.922;2023-04-25T01:05:45;12.01;72.41
75164;HTU21D;63746;45.402;37.922;2023-04-25T01:08:13;12.01;72.36
75164;HTU21D;63746;45.402;37.922;2023-04-25T01:10:39;12.02;72.48
75164;HTU21D;63746;45.402;37.922;2023-04-25T01:13:07;12.02;72.38
75164;HTU21D;63746;45.402;37.922;2023-04-25T01:15:33;12.02;72.25
75164;HTU21D;63746;45.402;37.922;2023-04-25T01:18:00;12.02;72.74
75164;HTU21D;63746;45.402;37.922;2023-04-25T01:20:28;12.03;72.54
75164;HTU21D;63746;45.402;37.922;2023-04-25T01:22:55;12.04;72.32
75164;HTU21D;63746;45.402;37.922;2023-04-25T01:25:22;12.05;72.39
75164;HTU21D;63746;45.402;37.922;2023-04-25T01:27:48;12.04;72.38
75164;HTU21D;63746;45.402;37.922;2023-04-25T01:30:15;12.04;72.62
75164;HTU21D;63746;45.402;37.922;2023-04-25T01:32:42;12.02;72.43
75164;HTU21D;63746;45.402;37.922;2023-04-25T01:35:11;12.01;72.45
75164;HTU21D;63746;45.402;37.922;2023-04-25T01:37:38;12.00;72.48
75164;HTU21D;63746;45.402;37.922;2023-04-25T01:40:05;11.99;72.75
75164;HTU21D;63746;45.402;37.922;2023-04-25T01:42:32;11.99;72.34
75164;HTU21D;63746;45.402;37.922;2023-04-25T01:44:59;12.00;72.23
75164;HTU21D;63746;45.402;37.922;2023-04-25T01:47:26;11.98;72.27
75164;HTU21D;63746;45.402;37.922;2023-04-25T01:49:54;11.99;72.24
75164;HTU21D;63746;45.402;37.922;2023-04-25T01:52:20;11.98;72.30
75164;HTU21D;63746;45.402;37.922;2023-04-25T01:54:46;11.97;72.61
75164;HTU21D;63746;45.402;37.922;2023-04-25T01:57:14;11.96;72.33
75164;HTU21D;63746;45.402;37.922;2023-04-25T01:59:43;11.96;72.42
75164;HTU21D;63746;45.402;37.922;2023-04-25T02:02:18;11.94;72.26
75164;HTU21D;63746;45.402;37.922;2023-04-25T02:04:44;11.93;72.38
75164;HTU21D;63746;45.402;37.922;2023-04-25T02:07:11;11.92;72.30
75164;HTU21D;63746;45.402;37.922;2023-04-25T02:09:49;11.96;72.29
75164;HTU21D;63746;45.402;37.922;2023-04-25T02:12:17;11.96;72.30
75164;HTU21D;63746;45.402;37.922;2023-04-25T02:15:09;11.98;72.36
75164;HTU21D;63746;45.402;37.922;2023-04-25T02:17:43;12.00;72.51
75164;HTU21D;63746;45.402;37.922;2023-04-25T02:20:11;12.00;72.35
75164;HTU21D;63746;45.402;37.922;2023-04-25T02:22:39;12.01;72.30
75164;HTU21D;63746;45.402;37.922;2023-04-25T02:25:06;12.01;72.61
75164;HTU21D;63746;45.402;37.922;2023-04-25T02:27:32;12.01;73.02
75164;HTU21D;63746;45.402;37.922;2023-04-25T02:29:58;12.02;72.42
75164;HTU21D;63746;45.402;37.922;2023-04-25T02:32:24;12.03;72.48
75164;HTU21D;63746;45.402;37.922;2023-04-25T02:34:49;12.04;72.74
75164;HTU21D;63746;45.402;37.922;2023-04-25T02:37:15;12.06;73.36
75164;HTU21D;63746;45.402;37.922;2023-04-25T02:39:44;12.06;72.67
75164;HTU21D;63746;45.402;37.922;2023-04-25T02:42:12;12.05;72.67
75164;HTU21D;63746;45.402;37.922;2023-04-25T02:44:38;12.06;72.46
75164;HTU21D;63746;45.402;37.922;2023-04-25T02:47:04;12.04;72.59
75164;HTU21D;63746;45.402;37.922;2023-04-25T02:49:30;12.04;72.55
75164;HTU21D;63746;45.402;37.922;2023-04-25T02:51:56;12.05;72.48
75164;HTU21D;63746;45.402;37.922;2023-04-25T02:54:22;12.06;72.40
75164;HTU21D;63746;45.402;37.922;2023-04-25T02:56:48;12.07;72.81
75164;HTU21D;63746;45.402;37.922;2023-04-25T02:59:20;12.07;72.46
75164;HTU21D;63746;45.402;37.922;2023-04-25T03:01:46;12.07;72.35
75164;HTU21D;63746;45.402;37.922;2023-04-25T03:04:12;12.07;72.33
75164;HTU21D;63746;45.402;37.922;2023-04-25T03:06:38;12.08;72.41
75164;HTU21D;63746;45.402;37.922;2023-04-25T03:09:04;12.07;72.38
75164;HTU21D;63746;45.402;37.922;2023-04-25T03:11:30;12.07;72.35
75164;HTU21D;63746;45.402;37.922;2023-04-25T03:13:56;12.08;72.25
75164;HTU21D;63746;45.402;37.922;2023-04-25T03:16:22;12.10;72.38
75164;HTU21D;63746;45.402;37.922;2023-04-25T03:18:49;12.08;72.35
75164;HTU21D;63746;45.402;37.922;2023-04-25T03:21:17;12.07;72.31
75164;HTU21D;63746;45.402;37.922;2023-04-25T03:23:43;12.06;72.35
75164;HTU21D;63746;45.402;37.922;2023-04-25T03:26:09;12.06;72.40
75164;HTU21D;63746;45.402;37.922;2023-04-25T03:28:35;12.08;72.42
75164;HTU21D;63746;45.402;37.922;2023-04-25T03:31:01;12.08;72.44
75164;HTU21D;63746;45.402;37.922;2023-04-25T03:33:27;12.12;72.34
75164;HTU21D;63746;45.402;37.922;2023-04-25T03:35:53;12.11;72.33
75164;HTU21D;63746;45.402;37.922;2023-04-25T03:38:19;12.12;72.33
75164;HTU21D;63746;45.402;37.922;2023-04-25T03:40:45;12.14;72.41
75164;HTU21D;63746;45.402;37.922;2023-04-25T03:43:19;12.16;72.58
75164;HTU21D;63746;45.402;37.922;2023-04-25T03:45:52;12.16;72.53
75164;HTU21D;63746;45.402;37.922;2023-04-25T03:48:20;12.16;72.39
75164;HTU21D;63746;45.402;37.922;2023-04-25T03:50:48;12.18;72.47
75164;HTU21D;63746;45.402;37.922;2023-04-25T03:53:13;12.19;72.54
75164;HTU21D;63746;45.402;37.922;2023-04-25T03:55:58;12.18;72.60
75164;HTU21D;63746;45.402;37.922;2023-04-25T03:58:24;12.18;72.77
75164;HTU21D;63746;45.402;37.922;2023-04-25T04:00:50;12.18;72.41
75164;HTU21D;63746;45.402;37.922;2023-04-25T04:03:16;12.16;72.58
75164;HTU21D;63746;45.402;37.922;2023-04-25T04:05:43;12.16;72.42
75164;HTU21D;63746;45.402;37.922;2023-04-25T04:08:08;12.14;72.75
75164;HTU21D;63746;45.402;37.922;2023-04-25T04:10:36;12.15;72.83
75164;HTU21D;63746;45.402;37.922;2023-04-25T04:13:02;12.12;72.54
75164;HTU21D;63746;45.402;37.922;2023-04-25T04:15:29;12.11;72.60
75164;HTU21D;63746;45.402;37.922;2023-04-25T04:17:55;12.10;72.51
75164;HTU21D;63746;45.402;37.922;2023-04-25T04:20:21;12.08;72.52
75164;HTU21D;63746;45.402;37.922;2023-04-25T04:22:48;12.07;72.47
75164;HTU21D;63746;45.402;37.922;2023-04-25T04:25:15;12.07;73.18
75164;HTU21D;63746;45.402;37.922;2023-04-25T04:28:02;12.05;72.55
75164;HTU21D;63746;45.402;37.922;2023-04-25T04:30:48;12.03;72.72
75164;HTU21D;63746;45.402;37.922;2023-04-25T04:33:17;12.01;73.98
75164;HTU21D;63746;45.402;37.922;2023-04-25T04:35:46;12.01;72.80
75164;HTU21D;63746;45.402;37.922;2023-04-25T04:38:13;12.00;72.67
75164;HTU21D;63746;45.402;37.922;2023-04-25T04:40:41;12.00;72.82
75164;HTU21D;63746;45.402;37.922;2023-04-25T04:43:36;12.00;73.03
75164;HTU21D;63746;45.402;37.922;2023-04-25T04:46:21;11.99;73.08
75164;HTU21D;63746;45.402;37.922;2023-04-25T04:49:06;12.00;72.95
75164;HTU21D;63746;45.402;37.922;2023-04-25T04:51:56;11.99;72.90
75164;HTU21D;63746;45.402;37.922;2023-04-25T04:54:51;11.98;72.99
75164;HTU21D;63746;45.402;37.922;2023-04-25T04:57:34;11.98;73.06
75164;HTU21D;63746;45.402;37.922;2023-04-25T05:00:21;11.99;73.14
75164;HTU21D;63746;45.402;37.922;2023-04-25T05:03:02;12.01;73.04
75164;HTU21D;63746;45.402;37.922;2023-04-25T05:05:38;12.02;72.70
75164;HTU21D;63746;45.402;37.922;2023-04-25T05:08:34;12.04;72.70
75164;HTU21D;63746;45.402;37.922;2023-04-25T05:11:19;12.07;72.83
75164;HTU21D;63746;45.402;37.922;2023-04-25T05:14:00;12.10;72.99
75164;HTU21D;63746;45.402;37.922;2023-04-25T05:16:59;12.13;72.86
75164;HTU21D;63746;45.402;37.922;2023-04-25T05:19:51;12.16;73.01
75164;HTU21D;63746;45.402;37.922;2023-04-25T05:22:33;12.18;72.87
75164;HTU21D;63746;45.402;37.922;2023-04-25T05:25:12;12.21;72.86
75164;HTU21D;63746;45.402;37.922;2023-04-25T05:28:02;12.23;72.79
75164;HTU21D;63746;45.402;37.922;2023-04-25T05:30:48;12.28;72.59
75164;HTU21D;63746;45.402;37.922;2023-04-25T05:33:37;12.30;72.67
75164;HTU21D;63746;45.402;37.922;2023-04-25T05:36:04;12.32;72.48
75164;HTU21D;63746;45.402;37.922;2023-04-25T05:38:30;12.34;72.48
75164;HTU21D;63746;45.402;37.922;2023-04-25T05:41:22;12.36;72.49
75164;HTU21D;63746;45.402;37.922;2023-04-25T05:43:55;12.38;72.41
75164;HTU21D;63746;45.402;37.922;2023-04-25T05:46:50;12.40;72.38
75164;HTU21D;63746;45.402;37.922;2023-04-25T05:49:26;12.42;72.34
75164;HTU21D;63746;45.402;37.922;2023-04-25T05:52:19;12.44;72.38
75164;HTU21D;63746;45.402;37.922;2023-04-25T05:54:56;12.44;72.32
75164;HTU21D;63746;45.402;37.922;2023-04-25T05:57:23;12.47;72.42
75164;HTU21D;63746;45.402;37.922;2023-04-25T05:59:50;12.47;72.26
75164;HTU21D;63746;45.402;37.922;2023-04-25T06:02:17;12.50;72.39
75164;HTU21D;63746;45.402;37.922;2023-04-25T06:04:43;12.50;72.20
75164;HTU21D;63746;45.402;37.922;2023-04-25T06:07:09;12.51;72.25
75164;HTU21D;63746;45.402;37.922;2023-04-25T06:09:36;12.53;72.22
75164;HTU21D;63746;45.402;37.922;2023-04-25T06:12:02;12.58;72.33
75164;HTU21D;63746;45.402;37.922;2023-04-25T06:14:29;12.60;72.42
75164;HTU21D;63746;45.402;37.922;2023-04-25T06:16:56;12.62;72.27
75164;HTU21D;63746;45.402;37.922;2023-04-25T06:19:21;12.66;72.29
75164;HTU21D;63746;45.402;37.922;2023-04-25T06:21:47;12.70;72.26
75164;HTU21D;63746;45.402;37.922;2023-04-25T06:24:13;12.74;72.38
75164;HTU21D;63746;45.402;37.922;2023-04-25T06:26:39;12.79;72.27
75164;HTU21D;63746;45.402;37.922;2023-04-25T06:29:06;12.84;72.26
75164;HTU21D;63746;45.402;37.922;2023-04-25T06:31:32;12.85;72.45
75164;HTU21D;63746;45.402;37.922;2023-04-25T06:34:00;12.88;72.36
75164;HTU21D;63746;45.402;37.922;2023-04-25T06:36:27;12.92;72.26
75164;HTU21D;63746;45.402;37.922;2023-04-25T06:39:01;12.95;72.20
75164;HTU21D;63746;45.402;37.922;2023-04-25T06:41:27;12.97;72.18
75164;HTU21D;63746;45.402;37.922;2023-04-25T06:43:58;13.02;72.16
75164;HTU21D;63746;45.402;37.922;2023-04-25T06:46:44;13.07;72.29
75164;HTU21D;63746;45.402;37.922;2023-04-25T06:49:13;13.10;72.32
75164;HTU21D;63746;45.402;37.922;2023-04-25T06:51:40;13.12;72.23
75164;HTU21D;63746;45.402;37.922;2023-04-25T06:54:06;13.16;72.17
75164;HTU21D;63746;45.402;37.922;2023-04-25T06:56:40;13.16;72.06
75164;HTU21D;63746;45.402;37.922;2023-04-25T06:59:12;13.18;71.98
75164;HTU21D;63746;45.402;37.922;2023-04-25T07:01:40;13.19;71.93
75164;HTU21D;63746;45.402;37.922;2023-04-25T07:04:13;13.17;72.01
75164;HTU21D;63746;45.402;37.922;2023-04-25T07:06:44;13.16;71.91
75164;HTU21D;63746;45.402;37.922;2023-04-25T07:09:12;13.15;72.02
75164;HTU21D;63746;45.402;37.922;2023-04-25T07:11:40;13.17;72.03
75164;HTU21D;63746;45.402;37.922;2023-04-25T07:14:06;13.17;72.00
75164;HTU21D;63746;45.402;37.922;2023-04-25T07:16:33;13.18;72.06
75164;HTU21D;63746;45.402;37.922;2023-04-25T07:19:00;13.21;72.32
75164;HTU21D;63746;45.402;37.922;2023-04-25T07:21:26;13.23;72.03
75164;HTU21D;63746;45.402;37.922;2023-04-25T07:23:52;13.24;72.13
75164;HTU21D;63746;45.402;37.922;2023-04-25T07:26:24;13.26;72.24
75164;HTU21D;63746;45.402;37.922;2023-04-25T07:29:08;13.31;72.32
75164;HTU21D;63746;45.402;37.922;2023-04-25T07:31:34;13.32;72.56
75164;HTU21D;63746;45.402;37.922;2023-04-25T07:34:01;13.36;72.41
75164;HTU21D;63746;45.402;37.922;2023-04-25T07:36:27;13.39;72.34
75164;HTU21D;63746;45.402;37.922;2023-04-25T07:38:53;13.45;72.38
75164;HTU21D;63746;45.402;37.922;2023-04-25T07:41:19;13.49;72.32
75164;HTU21D;63746;45.402;37.922;2023-04-25T07:43:45;13.54;72.46
75164;HTU21D;63746;45.402;37.922;2023-04-25T07:46:11;13.60;72.24
75164;HTU21D;63746;45.402;37.922;2023-04-25T07:48:37;13.67;72.16
75164;HTU21D;63746;45.402;37.922;2023-04-25T07:51:03;13.76;72.20
75164;HTU21D;63746;45.402;37.922;2023-04-25T07:53:31;13.84;72.12
75164;HTU21D;63746;45.402;37.922;2023-04-25T07:56:04;13.92;72.04
75164;HTU21D;63746;45.402;37.922;2023-04-25T07:58:33;13.99;72.09
75164;HTU21D;63746;45.402;37.922;2023-04-25T08:01:02;14.06;71.94
75164;HTU21D;63746;45.402;37.922;2023-04-25T08:03:44;14.13;71.97
75164;HTU21D;63746;45.402;37.922;2023-04-25T08:06:20;14.20;71.85
75164;HTU21D;63746;45.402;37.922;2023-04-25T08:08:57;14.24;72.29
75164;HTU21D;63746;45.402;37.922;2023-04-25T08:11:31;14.27;71.71
75164;HTU21D;63746;45.402;37.922;2023-04-25T08:13:57;14.29;71.76
75164;HTU21D;63746;45.402;37.922;2023-04-25T08:16:23;14.34;71.67
75164;HTU21D;63746;45.402;37.922;2023-04-25T08:18:51;14.38;71.61
75164;HTU21D;63746;45.402;37.922;2023-04-25T08:21:17;14.43;71.60
75164;HTU21D;63746;45.402;37.922;2023-04-25T08:23:43;14.47;71.62
75164;HTU21D;63746;45.402;37.922;2023-04-25T08:26:20;14.48;71.39
75164;HTU21D;63746;45.402;37.922;2023-04-25T08:28:47;14.50;71.34
75164;HTU21D;63746;45.402;37.922;2023-04-25T08:31:13;14.53;71.33
75164;HTU21D;63746;45.402;37.922;2023-04-25T08:33:48;14.54;71.32
75164;HTU21D;63746;45.402;37.922;2023-04-25T08:36:45;14.54;71.23
75164;HTU21D;63746;45.402;37.922;2023-04-25T08:39:38;14.51;71.28
75164;HTU21D;63746;45.402;37.922;2023-04-25T08:42:24;14.50;71.45
75164;HTU21D;63746;45.402;37.922;2023-04-25T08:44:50;14.49;71.43
75164;HTU21D;63746;45.402;37.922;2023-04-25T08:47:19;14.52;72.37
75164;HTU21D;63746;45.402;37.922;2023-04-25T08:49:53;14.55;71.77
75164;HTU21D;63746;45.402;37.922;2023-04-25T08:52:23;14.60;71.87
75164;HTU21D;63746;45.402;37.922;2023-04-25T08:54:52;14.66;71.67
75164;HTU21D;63746;45.402;37.922;2023-04-25T08:57:19;14.68;71.55
75164;HTU21D;63746;45.402;37.922;2023-04-25T08:59:48;14.71;71.45
75164;HTU21D;63746;45.402;37.922;2023-04-25T09:02:16;14.75;71.50
75164;HTU21D;63746;45.402;37.922;2023-04-25T09:04:48;14.81;71.48
75164;HTU21D;63746;45.402;37.922;2023-04-25T09:07:15;14.86;71.53
75164;HTU21D;63746;45.402;37.922;2023-04-25T09:09:44;14.91;71.36
75164;HTU21D;63746;45.402;37.922;2023-04-25T09:12:10;14.97;71.32
75164;HTU21D;63746;45.402;37.922;2023-04-25T09:14:36;15.01;71.29
75164;HTU21D;63746;45.402;37.922;2023-04-25T09:17:22;15.02;71.13
75164;HTU21D;63746;45.402;37.922;2023-04-25T09:19:51;15.00;70.95
75164;HTU21D;63746;45.402;37.922;2023-04-25T09:22:23;14.98;70.97
75164;HTU21D;63746;45.402;37.922;2023-04-25T09:24:49;15.00;71.03
75164;HTU21D;63746;45.402;37.922;2023-04-25T09:27:19;14.98;70.87
75164;HTU21D;63746;45.402;37.922;2023-04-25T09:29:48;14.97;70.96
75164;HTU21D;63746;45.402;37.922;2023-04-25T09:32:24;14.95;70.93
75164;HTU21D;63746;45.402;37.922;2023-04-25T09:34:57;14.93;70.81
75164;HTU21D;63746;45.402;37.922;2023-04-25T09:37:26;14.88;70.74
75164;HTU21D;63746;45.402;37.922;2023-04-25T09:40:30;14.82;70.71
75164;HTU21D;63746;45.402;37.922;2023-04-25T09:43:20;14.75;70.72
75164;HTU21D;63746;45.402;37.922;2023-04-25T09:45:48;14.69;70.69
75164;HTU21D;63746;45.402;37.922;2023-04-25T09:48:20;14.64;70.81
75164;HTU21D;63746;45.402;37.922;2023-04-25T09:53:33;14.56;70.96
75164;HTU21D;63746;45.402;37.922;2023-04-25T09:56:11;14.56;71.00
75164;HTU21D;63746;45.402;37.922;2023-04-25T09:58:39;14.56;71.04
75164;HTU21D;63746;45.402;37.922;2023-04-25T10:01:07;14.57;71.06
75164;HTU21D;63746;45.402;37.922;2023-04-25T10:03:43;14.59;71.09
75164;HTU21D;63746;45.402;37.922;2023-04-25T10:06:22;14.62;71.10
75164;HTU21D;63746;45.402;37.922;2023-04-25T10:08:51;14.64;71.10
75164;HTU21D;63746;45.402;37.922;2023-04-25T10:11:20;14.64;71.04
75164;HTU21D;63746;45.402;37.922;2023-04-25T10:13:48;14.65;71.00
75164;HTU21D;63746;45.402;37.922;2023-04-25T10:16:14;14.65;70.97
75164;HTU21D;63746;45.402;37.922;2023-04-25T10:18:41;14.66;70.97
75164;HTU21D;63746;45.402;37.922;2023-04-25T10:21:07;14.68;71.01
75164;HTU21D;63746;45.402;37.922;2023-04-25T10:23:34;14.72;71.05
75164;HTU21D;63746;45.402;37.922;2023-04-25T10:26:01;14.75;71.03
75164;HTU21D;63746;45.402;37.922;2023-04-25T10:28:27;14.79;71.01
75164;HTU21D;63746;45.402;37.922;2023-04-25T10:31:01;14.83;71.03
75164;HTU21D;63746;45.402;37.922;2023-04-25T10:33:39;14.85;70.98
75164;HTU21D;63746;45.402;37.922;2023-04-25T10:36:13;14.86;70.93
75164;HTU21D;63746;45.402;37.922;2023-04-25T10:38:40;14.91;70.94
75164;HTU21D;63746;45.402;37.922;2023-04-25T10:41:07;14.94;70.90
75164;HTU21D;63746;45.402;37.922;2023-04-25T10:43:35;15.00;70.87
75164;HTU21D;63746;45.402;37.922;2023-04-25T10:46:26;15.01;70.92
75164;HTU21D;63746;45.402;37.922;2023-04-25T10:48:58;15.04;71.03
75164;HTU21D;63746;45.402;37.922;2023-04-25T10:51:31;15.07;70.90
75164;HTU21D;63746;45.402;37.922;2023-04-25T10:54:03;15.09;70.91
75164;HTU21D;63746;45.402;37.922;2023-04-25T10:56:33;15.14;70.89
75164;HTU21D;63746;45.402;37.922;2023-04-25T10:59:11;15.17;70.90
75164;HTU21D;63746;45.402;37.922;2023-04-25T11:01:40;15.23;70.84
75164;HTU21D;63746;45.402;37.922;2023-04-25T11:04:36;15.30;70.88
75164;HTU21D;63746;45.402;37.922;2023-04-25T11:09:39;15.45;70.90
75164;HTU21D;63746;45.402;37.922;2023-04-25T11:12:08;15.54;70.85
75164;HTU21D;63746;45.402;37.922;2023-04-25T11:14:35;15.63;70.87
75164;HTU21D;63746;45.402;37.922;2023-04-25T11:17:01;15.78;71.02
75164;HTU21D;63746;45.402;37.922;2023-04-25T11:19:29;15.98;71.03
75164;HTU21D;63746;45.402;37.922;2023-04-25T11:21:59;16.14;70.82
75164;HTU21D;63746;45.402;37.922;2023-04-25T11:24:30;16.28;70.66
75164;HTU21D;63746;45.402;37.922;2023-04-25T11:26:58;16.43;70.68
75164;HTU21D;63746;45.402;37.922;2023-04-25T11:29:28;16.63;70.67
75164;HTU21D;63746;45.402;37.922;2023-04-25T11:31:55;16.82;70.55
75164;HTU21D;63746;45.402;37.922;2023-04-25T11:34:23;16.98;70.03
75164;HTU21D;63746;45.402;37.922;2023-04-25T11:36:51;17.01;69.90
75164;HTU21D;63746;45.402;37.922;2023-04-25T11:39:18;17.04;69.88
75164;HTU21D;63746;45.402;37.922;2023-04-25T11:41:44;17.13;69.84
75164;HTU21D;63746;45.402;37.922;2023-04-25T11:44:10;17.20;69.93
75164;HTU21D;63746;45.402;37.922;2023-04-25T11:46:36;17.31;69.90
75164;HTU21D;63746;45.402;37.922;2023-04-25T11:49:02;17.37;69.72
75164;HTU21D;63746;45.402;37.922;2023-04-25T11:51:29;17.41;69.61
75164;HTU21D;63746;45.402;37.922;2023-04-25T11:53:56;17.46;69.59
75164;HTU21D;63746;45.402;37.922;2023-04-25T11:56:22;17.46;69.39
75164;HTU21D;63746;45.402;37.922;2023-04-25T12:01:30;17.46;69.39
75164;HTU21D;63746;45.402;37.922;2023-04-25T12:03:57;17.51;69.49
75164;HTU21D;63746;45.402;37.922;2023-04-25T12:06:27;17.52;69.42
75164;HTU21D;63746;45.402;37.922;2023-04-25T12:09:01;17.54;69.22
75164;HTU21D;63746;45.402;37.922;2023-04-25T12:11:30;17.55;69.32
75164;HTU21D;63746;45.402;37.922;2023-04-25T12:14:03;17.54;69.23
75164;HTU21D;63746;45.402;37.922;2023-04-25T12:16:45;17.55;69.22
75164;HTU21D;63746;45.402;37.922;2023-04-25T12:19:19;17.60;69.39
75164;HTU21D;63746;45.402;37.922;2023-04-25T12:21:46;17.63;69.39
75164;HTU21D;63746;45.402;37.922;2023-04-25T12:24:17;17.65;69.29
75164;HTU21D;63746;45.402;37.922;2023-04-25T12:27:03;17.66;68.93
75164;HTU21D;63746;45.402;37.922;2023-04-25T12:29:31;17.68;69.19
75164;HTU21D;63746;45.402;37.922;2023-04-25T12:31:58;17.68;69.36
75164;HTU21D;63746;45.402;37.922;2023-04-25T12:34:24;17.72;69.37
75164;HTU21D;63746;45.402;37.922;2023-04-25T12:36:51;17.76;69.37
75164;HTU21D;63746;45.402;37.922;2023-04-25T12:39:19;17.79;69.38
75164;HTU21D;63746;45.402;37.922;2023-04-25T12:41:48;17.83;69.13
75164;HTU21D;63746;45.402;37.922;2023-04-25T12:44:14;17.83;69.14
75164;HTU21D;63746;45.402;37.922;2023-04-25T12:46:41;17.82;69.11
75164;HTU21D;63746;45.402;37.922;2023-04-25T12:49:07;17.82;69.07
75164;HTU21D;63746;45.402;37.922;2023-04-25T12:51:37;17.80;69.04
75164;HTU21D;63746;45.402;37.922;2023-04-25T12:54:04;17.79;69.04
75164;HTU21D;63746;45.402;37.922;2023-04-25T12:56:31;17.78;69.15
75164;HTU21D;63746;45.402;37.922;2023-04-25T12:58:58;17.78;69.08
75164;HTU21D;63746;45.402;37.922;2023-04-25T13:01:24;17.76;69.10
75164;HTU21D;63746;45.402;37.922;2023-04-25T13:03:50;17.75;69.05
75164;HTU21D;63746;45.402;37.922;2023-04-25T13:06:17;17.74;68.87
75164;HTU21D;63746;45.402;37.922;2023-04-25T13:08:43;17.69;68.86
75164;HTU21D;63746;45.402;37.922;2023-04-25T13:11:09;17.63;68.85
75164;HTU21D;63746;45.402;37.922;2023-04-25T13:13:37;17.58;69.00
75164;HTU21D;63746;45.402;37.922;2023-04-25T13:16:04;17.53;69.02
75164;HTU21D;63746;45.402;37.922;2023-04-25T13:18:30;17.51;69.05
75164;HTU21D;63746;45.402;37.922;2023-04-25T13:20:57;17.47;69.07
75164;HTU21D;63746;45.402;37.922;2023-04-25T13:23:26;17.45;69.12
75164;HTU21D;63746;45.402;37.922;2023-04-25T13:25:52;17.41;69.20
75164;HTU21D;63746;45.402;37.922;2023-04-25T13:28:18;17.39;69.16
75164;HTU21D;63746;45.402;37.922;2023-04-25T13:30:44;17.37;69.10
75164;HTU21D;63746;45.402;37.922;2023-04-25T13:33:11;17.35;69.13
75164;HTU21D;63746;45.402;37.922;2023-04-25T13:35:38;17.32;69.11
75164;HTU21D;63746;45.402;37.922;2023-04-25T13:38:04;17.26;69.11
75164;HTU21D;63746;45.402;37.922;2023-04-25T13:40:30;17.24;69.13
75164;HTU21D;63746;45.402;37.922;2023-04-25T13:42:57;17.22;69.22
75164;HTU21D;63746;45.402;37.922;2023-04-25T13:45:23;17.21;69.25
75164;HTU21D;63746;45.402;37.922;2023-04-25T13:47:49;17.20;69.27
75164;HTU21D;63746;45.402;37.922;2023-04-25T13:50:15;17.19;69.27
75164;HTU21D;63746;45.402;37.922;2023-04-25T13:52:42;17.18;69.13
75164;HTU21D;63746;45.402;37.922;2023-04-25T13:55:09;17.17;69.07
75164;HTU21D;63746;45.402;37.922;2023-04-25T13:57:35;17.10;69.08
75164;HTU21D;63746;45.402;37.922;2023-04-25T14:00:04;17.07;69.11
75164;HTU21D;63746;45.402;37.922;2023-04-25T14:02:35;17.02;69.20
75164;HTU21D;63746;45.402;37.922;2023-04-25T14:05:02;17.00;69.13
75164;HTU21D;63746;45.402;37.922;2023-04-25T14:07:27;16.96;69.28
75164;HTU21D;63746;45.402;37.922;2023-04-25T14:09:53;16.94;69.23
75164;HTU21D;63746;45.402;37.922;2023-04-25T14:12:19;16.93;69.24
75164;HTU21D;63746;45.402;37.922;2023-04-25T14:14:45;16.90;69.33
75164;HTU21D;63746;45.402;37.922;2023-04-25T14:17:11;16.91;69.30
75164;HTU21D;63746;45.402;37.922;2023-04-25T14:19:38;16.90;69.23
75164;HTU21D;63746;45.402;37.922;2023-04-25T14:22:09;16.86;69.19
75164;HTU21D;63746;45.402;37.922;2023-04-25T14:24:35;16.82;69.17
75164;HTU21D;63746;45.402;37.922;2023-04-25T14:27:01;16.78;69.15
75164;HTU21D;63746;45.402;37.922;2023-04-25T14:29:29;16.74;69.16
75164;HTU21D;63746;45.402;37.922;2023-04-25T14:31:55;16.71;68.98
75164;HTU21D;63746;45.402;37.922;2023-04-25T14:34:42;16.64;69.00
75164;HTU21D;63746;45.402;37.922;2023-04-25T14:37:08;16.60;69.16
75164;HTU21D;63746;45.402;37.922;2023-04-25T14:39:34;16.57;69.24
75164;HTU21D;63746;45.402;37.922;2023-04-25T14:42:00;16.56;69.26
75164;HTU21D;63746;45.402;37.922;2023-04-25T14:44:26;16.54;69.25
75164;HTU21D;63746;45.402;37.922;2023-04-25T14:46:52;16.52;69.13
75164;HTU21D;63746;45.402;37.922;2023-04-25T14:49:18;16.48;69.19
75164;HTU21D;63746;45.402;37.922;2023-04-25T14:51:44;16.44;69.23
75164;HTU21D;63746;45.402;37.922;2023-04-25T14:54:10;16.40;69.23
75164;HTU21D;63746;45.402;37.922;2023-04-25T14:56:37;16.35;69.21
75164;HTU21D;63746;45.402;37.922;2023-04-25T14:59:03;16.29;69.16
75164;HTU21D;63746;45.402;37.922;2023-04-25T15:01:29;16.24;69.17
75164;HTU21D;63746;45.402;37.922;2023-04-25T15:03:55;16.18;69.18
75164;HTU21D;63746;45.402;37.922;2023-04-25T15:06:22;16.12;69.20
75164;HTU21D;63746;45.402;37.922;2023-04-25T15:08:48;16.07;69.19
75164;HTU21D;63746;45.402;37.922;2023-04-25T15:11:14;16.02;69.26
75164;HTU21D;63746;45.402;37.922;2023-04-25T15:13:40;16.00;69.33
75164;HTU21D;63746;45.402;37.922;2023-04-25T15:16:06;15.97;69.37
75164;HTU21D;63746;45.402;37.922;2023-04-25T15:18:32;15.95;69.39
75164;HTU21D;63746;45.402;37.922;2023-04-25T15:20:58;15.92;69.36
75164;HTU21D;63746;45.402;37.922;2023-04-25T15:23:24;15.89;69.38
75164;HTU21D;63746;45.402;37.922;2023-04-25T15:25:50;15.87;69.38
75164;HTU21D;63746;45.402;37.922;2023-04-25T15:28:18;15.84;69.39